Olivesburg, Ohio
Current Conditions -  °F | °C
As of 2:52 AM on Wednesday 22 Oct 2014 (Local Time) from KMFD Reporting Station
Overcast Overcast  
Wind Chill: 39°   Ceiling: 2000
Heat Index: 44°   Visibility: 10mi
Dew Point: 44°   Wind: 10mph
Humidity: 100%   Direction: 320°NW
Pressure: 30.13"   Gusts: NA
Location:  40.8738°N, 82.3197°W
Report Text: KMFD 220652Z AUTO 32009KT 10SM FEW005 FEW009 OVC020 07/07 A3013 RMK AO2 SLP210 T00670067
Loading
Personal Weather Stations






























Interactive Weather Map
Tropical Storm Tracking
New forecast layout! Learn more

10-Day Weather Forecast

Advertisements
Track Severe Weather on mobile